الصفحة الرئيسية
METAR-TAF:

METAR-TAF

مطار :

Trinidad, كولورادو, الولايات المتحدة

Perry Stokes Airport

دائرة عرض: 37-16N, خط طول: 104-26W, ارتفاع: 1756 متر

مراقبة الطقس الحالي

تاريخ ووقت الإصدار 12 دقيقة قبل الساعة 15:54UTC
ريح 3 عقدةمن اتجاهات متغيرة
درجة الحرارة 5°درجة مئوية
الرطوبة 75%
ضغط 1028 hPa
الرؤية: 16.1 كم
سماء صافية

METAR: KTAD 251554Z AUTO VRB03KT 10SM CLR 05/01 A3035 RMK AO2 SLP274 T00500006

زمن: 10:06 (16:06 UTC)


TAF: مفقودة

أرصاد الطقس والتوقعات من أكثر من 4000 مطار (تقارير الطقس للمطار METAR والتنبؤ بالطقس بالمطارTAF).

المحطات المتاحة هي النقط الصفراء والحمراء على الخريطة.

حرك المؤشر فوق النقطة لمعرفة اسم المحطة.

ثم انقر لمعرفة أرصاد وتوقعات الطقس.

لتغيير الخارطة: اضغط على الأزرار الخضراء مع رمز الصليب الأسود للتكبير. على الزر الأخضر مع شرطة للتصغير، أو على الأسهم الخضراء للخرائط المجاورة.


METAR-TAF: